Terminal Aerodrome Forecast
Issued by NWS

Home | Current Version | Previous Version | Text Only | Print | Product List | Glossary On
Versions: 1 2 3 4 5 6 7 8 9 10 11 12 13 14 15 16 17 18 19 20 21 22 23
000
FTUS43 KSGF 280500
TAFBBG
TAF
KBBG 280538Z 2806/2906 13007KT P6SM SKC
     FM281500 16012G17KT P6SM SCT300 WS020/23035KT
     FM290400 20010KT P6SM SCT250=

USA.gov is the U.S. government's official web portal to all federal, state and local government web resources and services.